Dubendorf Airport LSMD

Flugplatz Daten

Name: Dubendorf Airport

Ident: LSMD

Lat: 47,39860153

Long: 8,648229599

Platzhöhe: 1470 ft

IataCode:

City: Zurich

Metar

2021/08/02 09:20
LSMD 020920Z 00000KT 9999 FEW026 SCT100 17/13 Q1017 RMK BLU+

Taf

2021/08/01 17:00
TAF LSMD 011625Z 0117/0223 27007KT 9999 FEW027 SCT048 PROB40
TEMPO 0117/0120 SHRA SCT040TCU PROB30
TEMPO 0117/0120 24015G25KT 4000 TSRA SCT040CB PROB40 0202/0207 3500 MIFG PROB30 0203/0206 1200 BCFG BKN003
TEMPO 0215/0220 SHRA FEW035TCU
Gewünschte Webcam nicht vorhanden? Dann fügen Sie eine hinzu. Sie wird dann so schnell wie möglich freigeschaltet
Url: Title: